Time;durP1;ratioP1;P1;durP2;ratioP2;P2;SDS_P1;SDS_P2;PMS_P1;PMS_P2;Temp;Humidity;BMP_temperature;BMP_pressure;BME280_temperature;BME280_humidity;BME280_pressure;Samples;Min_cycle;Max_cycle;Signal;HPM_P1;HPM_P2
2024/01/28 00:02:05;;;;;;;0.50;0.50;;;;;;;-1.28;100.00;103146.06;5093095;28;20539;-57
2024/01/28 00:04:30;;;;;;;0.50;0.50;;;;;;;-1.23;100.00;103144.09;5092344;28;20027;-57
2024/01/28 00:06:55;;;;;;;0.50;0.50;;;;;;;-1.29;100.00;103148.44;5092705;28;20016;-57
2024/01/28 00:09:21;;;;;;;0.50;0.50;;;;;;;-1.12;100.00;103140.22;5092702;28;20360;-57
2024/01/28 00:11:46;;;;;;;0.50;0.50;;;;;;;-1.16;100.00;103131.41;5092411;28;20032;-57
2024/01/28 00:14:11;;;;;;;0.60;0.60;;;;;;;-1.19;100.00;103121.84;5092570;28;20016;-57
2024/01/28 00:16:37;;;;;;;0.50;0.50;;;;;;;-1.19;100.00;103114.25;5092858;28;20028;-58
2024/01/28 00:19:02;;;;;;;0.50;0.50;;;;;;;-1.17;100.00;103119.50;5092357;28;20034;-57
2024/01/28 00:21:27;;;;;;;0.50;0.50;;;;;;;-1.19;100.00;103115.88;5095566;28;20016;-57
2024/01/28 00:23:53;;;;;;;0.60;0.60;;;;;;;-1.11;100.00;103117.66;5096923;28;20066;-57
2024/01/28 00:26:20;;;;;;;0.50;0.50;;;;;;;-1.02;100.00;103111.09;5096074;28;20115;-58
2024/01/28 00:28:45;;;;;;;0.55;0.55;;;;;;;-1.03;100.00;103108.41;5096695;28;20047;-57
2024/01/28 00:31:11;;;;;;;0.60;0.60;;;;;;;-1.08;100.00;103112.03;5096163;28;20032;-58
2024/01/28 00:33:36;;;;;;;0.60;0.60;;;;;;;-1.08;100.00;103109.50;5096959;28;20438;-58
2024/01/28 00:36:02;;;;;;;0.50;0.50;;;;;;;-1.12;100.00;103118.38;5096618;28;20069;-57
2024/01/28 00:38:31;;;;;;;0.40;0.40;;;;;;;-1.07;100.00;103118.88;5095876;28;20032;-57
2024/01/28 00:40:57;;;;;;;0.60;0.60;;;;;;;-1.19;100.00;103113.34;5096620;28;20107;-57
2024/01/28 00:43:22;;;;;;;0.60;0.60;;;;;;;-1.17;100.00;103110.25;5096129;28;20067;-57
2024/01/28 00:45:47;;;;;;;0.50;0.50;;;;;;;-1.13;100.00;103105.56;5095881;28;20044;-57
2024/01/28 00:48:13;;;;;;;0.60;0.60;;;;;;;-1.20;100.00;103107.38;5096142;28;20062;-57
2024/01/28 00:50:38;;;;;;;0.60;0.60;;;;;;;-1.22;100.00;103097.81;5096453;28;20440;-57
2024/01/28 00:53:04;;;;;;;0.55;0.55;;;;;;;-1.19;100.00;103090.56;5096067;28;20028;-57
2024/01/28 00:55:31;;;;;;;0.60;0.60;;;;;;;-1.25;100.00;103085.72;5095983;28;20051;-58
2024/01/28 00:57:56;;;;;;;0.60;0.60;;;;;;;-1.28;100.00;103092.06;5096250;28;20376;-57
2024/01/28 01:00:22;;;;;;;0.50;0.50;;;;;;;-1.39;100.00;103081.63;5095603;28;20465;-57
2024/01/28 01:02:47;;;;;;;0.50;0.50;;;;;;;-1.41;100.00;103078.00;5096242;28;20058;-57
2024/01/28 01:05:12;;;;;;;0.50;0.50;;;;;;;-1.54;100.00;103074.81;5095883;28;20031;-57
2024/01/28 01:07:38;;;;;;;0.50;0.50;;;;;;;-1.55;100.00;103078.06;5095653;28;20024;-57
2024/01/28 01:10:04;;;;;;;0.60;0.60;;;;;;;-1.58;100.00;103073.56;5095861;28;20469;-57
2024/01/28 01:12:29;;;;;;;0.50;0.50;;;;;;;-1.72;100.00;103069.44;5096006;28;20062;-58
2024/01/28 01:14:54;;;;;;;0.50;0.50;;;;;;;-1.60;100.00;103071.56;5095652;28;20395;-57
2024/01/28 01:17:20;;;;;;;0.60;0.60;;;;;;;-1.67;100.00;103073.38;5095662;28;20122;-57
2024/01/28 01:19:45;;;;;;;0.57;0.57;;;;;;;-1.70;100.00;103072.16;5096091;28;20039;-57
2024/01/28 01:22:11;;;;;;;0.60;0.60;;;;;;;-1.69;100.00;103074.84;5095109;28;20381;-57
2024/01/28 01:24:36;;;;;;;0.50;0.50;;;;;;;-1.70;100.00;103072.16;5095618;28;20028;-57
2024/01/28 01:27:02;;;;;;;0.50;0.50;;;;;;;-1.65;100.00;103071.06;5095674;28;20380;-57
2024/01/28 01:29:27;;;;;;;0.50;0.50;;;;;;;-1.76;100.00;103067.28;5094891;28;20043;-57
2024/01/28 01:31:54;;;;;;;0.50;0.50;;;;;;;-1.63;100.00;103064.53;5094152;28;20024;-57
2024/01/28 01:34:20;;;;;;;0.50;0.50;;;;;;;-1.75;100.00;103058.97;5095431;28;20024;-57
2024/01/28 01:36:45;;;;;;;0.40;0.40;;;;;;;-1.75;100.00;103058.97;5095098;28;20043;-57
2024/01/28 01:39:10;;;;;;;0.60;0.60;;;;;;;-1.80;100.00;103059.19;5094928;28;20032;-57
2024/01/28 01:41:36;;;;;;;0.50;0.50;;;;;;;-1.89;100.00;103053.97;5094947;28;20434;-57
2024/01/28 01:44:01;;;;;;;0.50;0.50;;;;;;;-1.84;100.00;103057.94;5095289;28;20012;-57
2024/01/28 01:46:29;;;;;;;0.60;0.60;;;;;;;-1.91;100.00;103055.41;5094940;28;20020;-57
2024/01/28 01:48:55;;;;;;;0.50;0.50;;;;;;;-1.91;100.00;103063.00;5094917;28;20028;-57
2024/01/28 01:51:23;;;;;;;0.60;0.60;;;;;;;-2.02;100.00;103065.16;5094756;28;20081;-57
2024/01/28 01:53:48;;;;;;;;;;;;;;;-1.88;100.00;103068.41;5095634;28;20028;-57
2024/01/28 01:56:14;;;;;;;0.60;0.60;;;;;;;-2.06;100.00;103065.53;5094655;28;19919;-57
2024/01/28 01:58:39;;;;;;;0.50;0.50;;;;;;;-2.12;100.00;103067.34;5094865;28;20107;-57
2024/01/28 02:01:05;;;;;;;0.60;0.60;;;;;;;-2.11;100.00;103073.31;5095371;28;20043;-57
2024/01/28 02:03:30;;;;;;;0.60;0.60;;;;;;;-2.17;100.00;103065.91;5094314;28;20012;-57
2024/01/28 02:05:55;;;;;;;0.60;0.60;;;;;;;-2.23;100.00;103080.38;5094973;28;20131;-57
2024/01/28 02:08:21;;;;;;;0.60;0.60;;;;;;;-2.26;100.00;103080.00;5094858;28;20020;-57
2024/01/28 02:10:46;;;;;;;0.60;0.60;;;;;;;-2.24;100.00;103079.47;5094426;28;20019;-57
2024/01/28 02:13:12;;;;;;;0.50;0.50;;;;;;;-2.34;100.00;103074.06;5094552;28;20510;-59
2024/01/28 02:15:38;;;;;;;0.60;0.60;;;;;;;-2.38;100.00;103075.31;5094977;28;20429;-58
2024/01/28 02:18:04;;;;;;;0.50;0.50;;;;;;;-2.36;100.00;103078.94;5094364;28;20020;-58
2024/01/28 02:20:29;;;;;;;0.60;0.60;;;;;;;-2.44;100.00;103069.56;5094334;28;20038;-57
2024/01/28 02:22:54;;;;;;;0.60;0.60;;;;;;;-2.34;100.00;103059.81;5094650;28;20030;-57
2024/01/28 02:25:20;;;;;;;0.60;0.60;;;;;;;-2.30;100.00;103052.59;5093812;28;20028;-57
2024/01/28 02:27:46;;;;;;;0.50;0.50;;;;;;;-2.23;100.00;103045.00;5094653;28;20039;-57
2024/01/28 02:30:12;;;;;;;0.60;0.60;;;;;;;-2.15;100.00;103040.09;5094484;28;20035;-58
2024/01/28 02:32:46;;;;;;;0.63;0.63;;;;;;;-2.01;100.00;103034.13;5094196;28;20024;-58
2024/01/28 02:35:11;;;;;;;0.57;0.57;;;;;;;-1.96;100.00;103027.09;5094135;28;20024;-58
2024/01/28 02:37:36;;;;;;;0.50;0.50;;;;;;;-1.85;100.00;103025.78;5094365;28;20065;-58
2024/01/28 02:40:01;;;;;;;0.70;0.70;;;;;;;-1.79;100.00;103021.44;5094124;28;20024;-57
2024/01/28 02:42:27;;;;;;;0.50;0.50;;;;;;;-1.75;100.00;103013.47;5093676;28;20024;-58
2024/01/28 02:44:52;;;;;;;0.60;0.60;;;;;;;-1.74;100.00;103015.28;5093643;28;20067;-57
2024/01/28 02:47:17;;;;;;;0.57;0.57;;;;;;;-1.65;100.00;103005.31;5094178;28;20460;-57
2024/01/28 02:49:43;;;;;;;0.60;0.60;;;;;;;-1.72;100.00;103016.34;5094164;28;20367;-57
2024/01/28 02:52:08;;;;;;;0.50;0.50;;;;;;;-1.79;100.00;103016.38;5093782;28;20070;-57
2024/01/28 02:54:33;;;;;;;0.60;0.60;;;;;;;-1.96;100.00;103016.06;5093522;28;20107;-57
2024/01/28 02:56:59;;;;;;;0.70;0.70;;;;;;;-2.00;100.00;103010.66;5094291;28;20028;-57
2024/01/28 02:59:24;;;;;;;0.50;0.50;;;;;;;-2.06;100.00;102998.97;5093278;28;20459;-57
2024/01/28 03:01:49;;;;;;;0.50;0.50;;;;;;;-2.18;100.00;103004.41;5093852;28;20024;-57
2024/01/28 03:04:15;;;;;;;0.55;0.55;;;;;;;-2.26;100.00;103007.66;5093797;28;20028;-58
2024/01/28 03:06:41;;;;;;;0.60;0.60;;;;;;;-2.29;100.00;103008.94;5093305;28;20095;-57
2024/01/28 03:09:07;;;;;;;0.60;0.60;;;;;;;-2.35;100.00;103011.63;5093550;28;20032;-57
2024/01/28 03:11:32;;;;;;;0.50;0.50;;;;;;;-2.36;100.00;103013.25;5093652;28;20016;-58
2024/01/28 03:13:58;;;;;;;0.60;0.60;;;;;;;-2.42;100.00;103002.44;5093140;28;20133;-57
2024/01/28 03:16:23;;;;;;;0.60;0.60;;;;;;;-2.45;100.00;102996.13;5093252;28;20035;-57
2024/01/28 03:18:48;;;;;;;0.45;0.45;;;;;;;-2.43;100.00;102990.53;5093453;28;20024;-57
2024/01/28 03:21:13;;;;;;;0.60;0.60;;;;;;;-2.53;100.00;102982.59;5092801;28;20027;-58
2024/01/28 03:23:39;;;;;;;0.55;0.55;;;;;;;-2.53;100.00;102980.06;5093593;28;20482;-57
2024/01/28 03:26:04;;;;;;;0.60;0.60;;;;;;;-2.58;100.00;102986.22;5093668;28;20399;-57
2024/01/28 03:28:29;;;;;;;0.50;0.50;;;;;;;-2.66;100.00;102986.22;5092836;28;20111;-57
2024/01/28 03:30:55;;;;;;;0.60;0.60;;;;;;;-2.67;100.00;102984.44;5093314;28;20051;-57
2024/01/28 03:33:20;;;;;;;0.60;0.60;;;;;;;-2.71;100.00;102979.75;5093214;28;20016;-57
2024/01/28 03:35:45;;;;;;;0.40;0.40;;;;;;;-2.76;100.00;102990.91;5092850;28;20383;-57
2024/01/28 03:38:11;;;;;;;0.50;0.50;;;;;;;-2.67;100.00;102992.00;5092911;28;20046;-58
2024/01/28 03:40:36;;;;;;;0.60;0.60;;;;;;;-2.79;100.00;102995.59;5093457;28;20063;-57
2024/01/28 03:43:01;;;;;;;0.65;0.65;;;;;;;-2.75;100.00;102995.25;5092764;28;20028;-57
2024/01/28 03:45:26;;;;;;;0.60;0.60;;;;;;;-2.83;100.00;102990.91;5092602;28;20044;-58
2024/01/28 03:47:52;;;;;;;0.60;0.60;;;;;;;-2.77;100.00;102991.63;5093329;28;20464;-57
2024/01/28 03:50:19;;;;;;;0.60;0.60;;;;;;;-2.86;100.00;102998.13;5092464;28;20031;-57
2024/01/28 03:52:45;;;;;;;0.60;0.60;;;;;;;-2.82;100.00;102982.63;5092846;28;20020;-58
2024/01/28 03:55:10;;;;;;;0.50;0.50;;;;;;;-2.72;100.00;102977.03;5091672;28;20022;-57
2024/01/28 03:57:39;;;;;;;0.50;0.50;;;;;;;-2.69;100.00;102975.75;5092815;28;20122;-57
2024/01/28 04:00:06;;;;;;;0.52;0.52;;;;;;;-2.68;100.00;102972.50;5092989;28;20533;-57
2024/01/28 04:02:31;;;;;;;0.60;0.60;;;;;;;-2.60;100.00;102965.84;5091128;28;20050;-57
2024/01/28 04:04:57;;;;;;;0.60;0.60;;;;;;;-2.69;100.00;102973.22;5092795;28;20050;-57
2024/01/28 04:07:22;;;;;;;0.60;0.60;;;;;;;-2.76;100.00;102967.28;5092547;28;20039;-57
2024/01/28 04:09:47;;;;;;;0.50;0.50;;;;;;;-2.85;100.00;102972.19;5092258;28;20114;-57
2024/01/28 04:12:13;;;;;;;0.60;0.60;;;;;;;-2.87;100.00;102968.56;5092306;28;20036;-57
2024/01/28 04:14:38;;;;;;;0.60;0.60;;;;;;;-2.84;100.00;102963.88;5093082;28;20035;-57
2024/01/28 04:17:03;;;;;;;0.60;0.60;;;;;;;-2.92;100.00;102972.16;5092510;28;20120;-57
2024/01/28 04:19:29;;;;;;;0.57;0.57;;;;;;;-2.91;100.00;102976.50;5092242;28;20032;-58
2024/01/28 04:21:54;;;;;;;0.60;0.60;;;;;;;-2.89;100.00;102973.44;5092796;28;20077;-57
2024/01/28 04:24:19;;;;;;;0.50;0.50;;;;;;;-2.89;100.00;102977.56;5092207;28;20433;-57
2024/01/28 04:26:44;;;;;;;0.50;0.50;;;;;;;-2.81;100.00;102955.03;5092756;28;20028;-57
2024/01/28 04:29:10;;;;;;;0.63;0.63;;;;;;;-2.79;100.00;102957.72;5092705;28;20028;-58
2024/01/28 04:31:41;;;;;;;0.65;0.65;;;;;;;-2.87;100.00;102948.38;5092075;28;20020;-57
2024/01/28 04:34:07;;;;;;;0.50;0.50;;;;;;;-2.79;100.00;102955.22;5092583;28;20028;-57
2024/01/28 04:36:32;;;;;;;0.50;0.50;;;;;;;-2.75;100.00;102942.25;5092305;28;20046;-57
2024/01/28 04:38:59;;;;;;;0.55;0.55;;;;;;;-2.68;100.00;102939.72;5092278;28;20028;-57
2024/01/28 04:41:24;;;;;;;0.60;0.60;;;;;;;-2.58;100.00;102940.78;5092262;28;20020;-57
2024/01/28 04:43:49;;;;;;;0.60;0.60;;;;;;;-2.58;100.00;102943.28;5092693;28;20020;-58
2024/01/28 04:46:18;;;;;;;0.60;0.60;;;;;;;-2.49;100.00;102934.28;5091988;28;20020;-57
2024/01/28 04:48:44;;;;;;;0.60;0.60;;;;;;;-2.53;100.00;102934.63;5092318;28;20489;-59
2024/01/28 04:51:09;;;;;;;0.50;0.50;;;;;;;-2.57;100.00;102924.91;5092113;28;20020;-58
2024/01/28 04:53:35;;;;;;;0.60;0.60;;;;;;;-2.55;100.00;102933.56;5092211;28;20020;-58
2024/01/28 04:56:02;;;;;;;0.60;0.60;;;;;;;-2.43;100.00;102924.00;5092122;28;20480;-57
2024/01/28 04:58:27;;;;;;;0.65;0.65;;;;;;;-2.45;100.00;102921.28;5091492;28;20114;-57
2024/01/28 05:00:54;;;;;;;0.57;0.57;;;;;;;-2.42;100.00;102921.63;5092398;28;20031;-58
2024/01/28 05:03:20;;;;;;;0.60;0.60;;;;;;;-2.45;100.00;102911.19;5092155;28;20107;-57
2024/01/28 05:05:45;;;;;;;0.60;0.60;;;;;;;-2.42;100.00;102916.59;5092295;28;20095;-58
2024/01/28 05:08:10;;;;;;;0.50;0.50;;;;;;;-2.36;100.00;102923.97;5095792;28;20031;-57
2024/01/28 05:10:36;;;;;;;0.55;0.55;;;;;;;-2.37;100.00;102928.09;5096201;28;20499;-57
2024/01/28 05:13:01;;;;;;;0.60;0.60;;;;;;;-2.36;100.00;102927.41;5095733;28;20028;-58
2024/01/28 05:15:26;;;;;;;0.50;0.50;;;;;;;-2.29;100.00;102933.16;5095558;28;20464;-57
2024/01/28 05:17:52;;;;;;;0.60;0.60;;;;;;;-2.32;100.00;102928.66;5096078;28;20030;-57
2024/01/28 05:20:17;;;;;;;0.50;0.50;;;;;;;-2.29;100.00;102923.94;5094962;28;20024;-58
2024/01/28 05:22:43;;;;;;;0.50;0.50;;;;;;;-2.26;100.00;102918.34;5095848;28;20478;-57
2024/01/28 05:25:09;;;;;;;0.50;0.50;;;;;;;-2.39;100.00;102919.47;5095959;28;20026;-58
2024/01/28 05:27:35;;;;;;;0.40;0.40;;;;;;;-2.48;100.00;102923.44;5095462;28;20107;-57
2024/01/28 05:30:01;;;;;;;0.52;0.52;;;;;;;-2.58;100.00;102923.09;5095499;28;20499;-57
2024/01/28 05:32:26;;;;;;;0.60;0.60;;;;;;;-2.51;100.00;102905.44;5095465;28;20039;-57
2024/01/28 05:34:52;;;;;;;0.60;0.60;;;;;;;-2.46;100.00;102904.31;5095087;28;20051;-57
2024/01/28 05:37:17;;;;;;;0.57;0.57;;;;;;;-2.44;100.00;102902.91;5095288;28;20024;-57
2024/01/28 05:39:42;;;;;;;0.70;0.70;;;;;;;-2.62;100.00;102906.72;5095469;28;20036;-57
2024/01/28 05:42:08;;;;;;;0.60;0.60;;;;;;;-2.60;100.00;102891.75;5095112;28;20541;-57
2024/01/28 05:44:33;;;;;;;0.60;0.60;;;;;;;-2.59;100.00;102883.44;5094842;28;20043;-58
2024/01/28 05:46:58;;;;;;;0.70;0.70;;;;;;;-2.60;100.00;102884.16;5095434;28;20040;-58
2024/01/28 05:49:24;;;;;;;0.60;0.60;;;;;;;-2.67;100.00;102885.97;5094536;28;20032;-58
2024/01/28 05:51:49;;;;;;;0.60;0.60;;;;;;;-2.60;100.00;102879.13;5095354;28;20020;-58
2024/01/28 05:54:14;;;;;;;0.70;0.70;;;;;;;-2.76;100.00;102882.41;5095270;28;20035;-58
2024/01/28 05:56:40;;;;;;;0.50;0.50;;;;;;;-2.80;100.00;102875.19;5094866;28;20028;-57
2024/01/28 05:59:05;;;;;;;0.50;0.50;;;;;;;-2.79;100.00;102874.44;5095025;28;20043;-57
2024/01/28 06:01:30;;;;;;;0.50;0.50;;;;;;;-2.87;100.00;102867.63;5094836;28;20052;-57
2024/01/28 06:03:55;;;;;;;0.55;0.55;;;;;;;-2.83;100.00;102862.19;5094378;28;20034;-57
2024/01/28 06:06:21;;;;;;;0.50;0.50;;;;;;;-2.90;100.00;102862.25;5094916;28;20020;-57
2024/01/28 06:08:46;;;;;;;0.60;0.60;;;;;;;-2.99;100.00;102857.00;5094676;28;20028;-57
2024/01/28 06:11:11;;;;;;;0.55;0.55;;;;;;;-2.85;100.00;102851.06;5094563;28;20405;-58
2024/01/28 06:13:36;;;;;;;0.50;0.50;;;;;;;-2.76;100.00;102846.16;5095065;28;20031;-58
2024/01/28 06:16:02;;;;;;;0.70;0.70;;;;;;;-2.73;100.00;102847.41;5094536;28;20769;-57
2024/01/28 06:18:27;;;;;;;0.57;0.57;;;;;;;-2.75;100.00;102848.88;5093487;28;20103;-58
2024/01/28 06:20:53;;;;;;;0.70;0.70;;;;;;;-2.77;100.00;102849.41;5095018;28;20043;-57
2024/01/28 06:23:18;;;;;;;0.63;0.63;;;;;;;-2.82;100.00;102856.44;5094106;28;20024;-57
2024/01/28 06:25:43;;;;;;;0.60;0.60;;;;;;;-2.82;100.00;102851.41;5094576;28;20108;-57
2024/01/28 06:28:09;;;;;;;0.55;0.55;;;;;;;-2.83;100.00;102853.03;5094701;28;20027;-57
2024/01/28 06:30:35;;;;;;;0.50;0.50;;;;;;;-2.85;100.00;102846.00;5094145;28;20020;-57
2024/01/28 06:33:02;;;;;;;0.60;0.60;;;;;;;-2.91;100.00;102846.19;5094347;28;20145;-57
2024/01/28 06:35:28;;;;;;;0.60;0.60;;;;;;;-2.93;100.00;102836.63;5094399;28;20051;-57
2024/01/28 06:37:53;;;;;;;0.60;0.60;;;;;;;-2.98;100.00;102836.13;5094009;28;20757;-57
2024/01/28 06:40:19;;;;;;;0.60;0.60;;;;;;;-2.94;100.00;102827.25;5094112;28;20052;-57
2024/01/28 06:42:45;;;;;;;0.60;0.60;;;;;;;-2.85;100.00;102830.88;5094414;28;20020;-58
2024/01/28 06:45:10;;;;;;;0.60;0.60;;;;;;;-2.90;100.00;102824.38;5093048;28;20048;-58
2024/01/28 06:47:35;;;;;;;0.60;0.60;;;;;;;-2.91;100.00;102825.09;5094065;28;20114;-57
2024/01/28 06:50:01;;;;;;;0.43;0.43;;;;;;;-2.87;100.00;102830.66;5094432;28;20375;-57
2024/01/28 06:52:26;;;;;;;0.57;0.57;;;;;;;-2.89;100.00;102826.16;5093363;28;20020;-58
2024/01/28 06:54:52;;;;;;;0.60;0.60;;;;;;;-2.86;100.00;102829.94;5094028;28;20020;-57
2024/01/28 06:57:19;;;;;;;0.75;0.75;;;;;;;-2.76;100.00;102831.00;5093744;28;20372;-58
2024/01/28 06:59:45;;;;;;;0.60;0.60;;;;;;;-2.73;100.00;102826.31;5093418;28;20107;-57
2024/01/28 07:02:11;;;;;;;0.60;0.60;;;;;;;-2.76;100.00;102820.91;5093375;28;20020;-58
2024/01/28 07:04:37;;;;;;;0.60;0.60;;;;;;;-2.69;100.00;102824.31;5094119;28;20016;-57
2024/01/28 07:07:03;;;;;;;0.70;0.70;;;;;;;-2.69;100.00;102829.34;5093371;28;20032;-58
2024/01/28 07:09:28;;;;;;;0.60;0.60;;;;;;;-2.78;100.00;102818.22;5093741;28;20021;-57
2024/01/28 07:11:54;;;;;;;0.63;0.63;;;;;;;-2.68;100.00;102835.31;5093884;28;20024;-58
2024/01/28 07:14:19;;;;;;;0.52;0.52;;;;;;;-2.71;100.00;102824.84;5092796;28;20373;-58
2024/01/28 07:16:44;;;;;;;0.70;0.70;;;;;;;-2.72;100.00;102826.50;5093678;28;20024;-57
2024/01/28 07:19:09;;;;;;;0.60;0.60;;;;;;;-2.75;100.00;102831.22;5092641;28;20032;-58
2024/01/28 07:21:35;;;;;;;0.50;0.50;;;;;;;-2.69;100.00;102821.78;5093558;28;20024;-58
2024/01/28 07:24:02;;;;;;;0.50;0.50;;;;;;;-2.72;100.00;102826.50;5093637;28;20020;-57
2024/01/28 07:26:29;;;;;;;0.65;0.65;;;;;;;-2.70;100.00;102832.63;5092840;28;20020;-58
2024/01/28 07:28:54;;;;;;;0.50;0.50;;;;;;;-2.73;100.00;102822.16;5093275;28;20082;-58
2024/01/28 07:31:19;;;;;;;0.70;0.70;;;;;;;-2.72;100.00;102823.97;5093093;28;20111;-58
2024/01/28 07:33:45;;;;;;;0.60;0.60;;;;;;;-2.65;100.00;102823.97;5093131;28;20059;-58
2024/01/28 07:36:10;;;;;;;0.63;0.63;;;;;;;-2.60;100.00;102818.53;5093072;28;20091;-58
2024/01/28 07:38:35;;;;;;;0.60;0.60;;;;;;;-2.72;100.00;102813.88;5093449;28;20430;-58
2024/01/28 07:41:00;;;;;;;0.50;0.50;;;;;;;-2.63;100.00;102820.69;5092789;28;20059;-58
2024/01/28 07:43:26;;;;;;;0.60;0.60;;;;;;;-2.74;100.00;102814.41;5092737;28;20016;-57
2024/01/28 07:45:51;;;;;;;0.60;0.60;;;;;;;-2.77;100.00;102814.97;5092987;28;20054;-58
2024/01/28 07:48:19;;;;;;;0.60;0.60;;;;;;;-2.69;100.00;102805.75;5092299;28;20034;-58
2024/01/28 07:50:44;;;;;;;0.70;0.70;;;;;;;-2.62;100.00;102809.88;5092926;28;20477;-57
2024/01/28 07:53:11;;;;;;;0.55;0.55;;;;;;;-2.55;100.00;102803.19;5092940;28;20041;-57
2024/01/28 07:55:36;;;;;;;0.60;0.60;;;;;;;-2.50;100.00;102808.75;5092793;28;20111;-57
2024/01/28 07:58:02;;;;;;;0.60;0.60;;;;;;;-2.44;100.00;102812.00;5092808;28;20106;-58
2024/01/28 08:00:27;;;;;;;0.70;0.70;;;;;;;-2.38;100.00;102802.56;5092708;28;20425;-57
2024/01/28 08:02:53;;;;;;;0.55;0.55;;;;;;;-2.37;100.00;102806.00;5092662;28;20025;-57
2024/01/28 08:05:18;;;;;;;0.50;0.50;;;;;;;-2.30;100.00;102800.91;5092684;28;20028;-58
2024/01/28 08:07:44;;;;;;;0.70;0.70;;;;;;;-2.26;100.00;102807.22;5093234;28;20073;-57
2024/01/28 08:10:09;;;;;;;0.50;0.50;;;;;;;-2.27;100.00;102806.31;5091992;28;20021;-58
2024/01/28 08:12:34;;;;;;;0.52;0.52;;;;;;;-2.24;100.00;102805.78;5092808;28;20020;-57
2024/01/28 08:15:00;;;;;;;0.65;0.65;;;;;;;-2.22;100.00;102799.25;5092727;28;20020;-58
2024/01/28 08:17:26;;;;;;;0.63;0.63;;;;;;;-2.15;100.00;102810.22;5091709;28;20036;-57
2024/01/28 08:19:51;;;;;;;0.50;0.50;;;;;;;-2.10;100.00;102800.63;5092965;28;20028;-58
2024/01/28 08:22:17;;;;;;;0.70;0.70;;;;;;;-2.05;100.00;102804.56;5092484;28;20376;-58
2024/01/28 08:24:42;;;;;;;0.50;0.50;;;;;;;-1.97;100.00;102799.50;5092459;28;20107;-57
2024/01/28 08:27:07;;;;;;;0.60;0.60;;;;;;;-1.88;100.00;102793.81;5092195;28;20024;-57
2024/01/28 08:29:33;;;;;;;0.57;0.57;;;;;;;-1.79;100.00;102791.41;5090218;28;20380;-57
2024/01/28 08:31:59;;;;;;;0.50;0.50;;;;;;;-1.69;100.00;102790.78;5092361;28;20111;-57
2024/01/28 08:34:24;;;;;;;0.50;0.50;;;;;;;-1.60;100.00;102790.91;5092352;28;20032;-57
2024/01/28 08:36:50;;;;;;;0.60;0.60;;;;;;;-1.53;100.00;102793.38;5091522;28;20031;-58
2024/01/28 08:39:15;;;;;;;0.60;0.60;;;;;;;-1.43;100.00;102791.13;5092130;28;20085;-57
2024/01/28 08:41:40;;;;;;;0.50;0.50;;;;;;;-1.34;100.00;102796.31;5093536;28;20168;-58
2024/01/28 08:44:06;;;;;;;0.60;0.60;;;;;;;-1.26;100.00;102785.38;5095708;28;20039;-57
2024/01/28 08:46:32;;;;;;;0.60;0.60;;;;;;;-1.20;100.00;102787.66;5095801;28;20785;-57
2024/01/28 08:48:57;;;;;;;0.70;0.70;;;;;;;-1.09;100.00;102779.59;5095553;28;20030;-58
2024/01/28 08:51:23;;;;;;;0.60;0.60;;;;;;;-0.99;100.00;102781.50;5095195;28;20024;-57
2024/01/28 08:53:48;;;;;;;0.60;0.60;;;;;;;-0.92;100.00;102778.00;5096234;28;20093;-58
2024/01/28 08:56:13;;;;;;;0.50;0.50;;;;;;;-0.82;100.00;102784.94;5096067;28;20027;-57
2024/01/28 08:58:38;;;;;;;0.50;0.50;;;;;;;-0.69;100.00;102767.78;5095650;28;20484;-58
2024/01/28 09:01:05;;;;;;;0.45;0.45;;;;;;;-0.62;100.00;102771.84;5095888;28;20392;-57
2024/01/28 09:03:30;;;;;;;0.50;0.50;;;;;;;-0.49;100.00;102774.97;5095612;28;20082;-58
2024/01/28 09:05:55;;;;;;;0.60;0.60;;;;;;;-0.42;100.00;102774.84;5095741;28;20028;-58
2024/01/28 09:08:21;;;;;;;0.60;0.60;;;;;;;-0.38;100.00;102771.91;5095575;28;20024;-57
2024/01/28 09:10:46;;;;;;;0.40;0.40;;;;;;;-0.31;100.00;102772.56;5096306;28;20073;-57
2024/01/28 09:13:11;;;;;;;0.40;0.40;;;;;;;-0.24;100.00;102773.34;5095098;28;20103;-57
2024/01/28 09:15:37;;;;;;;0.40;0.40;;;;;;;-0.20;100.00;102765.31;5095727;28;20098;-56
2024/01/28 09:18:02;;;;;;;0.50;0.50;;;;;;;-0.12;100.00;102776.25;5096071;28;20021;-57
2024/01/28 09:20:27;;;;;;;0.50;0.50;;;;;;;-0.05;100.00;102773.63;5095024;28;20046;-57
2024/01/28 09:22:52;;;;;;;0.50;0.50;;;;;;;0.00;100.00;102761.44;5096102;28;20099;-57
2024/01/28 09:25:18;;;;;;;0.60;0.60;;;;;;;0.10;100.00;102754.00;5095489;28;20050;-58
2024/01/28 09:27:48;;;;;;;0.50;0.50;;;;;;;0.14;100.00;102755.25;5092762;28;20028;-57
2024/01/28 09:30:13;;;;;;;0.50;0.50;;;;;;;0.25;100.00;102759.78;5094535;28;20039;-58
2024/01/28 09:32:39;;;;;;;0.50;0.50;;;;;;;0.34;100.00;102754.75;5095120;28;20024;-57
2024/01/28 09:35:05;;;;;;;0.47;0.47;;;;;;;0.51;100.00;102760.63;5094737;28;20040;-57
2024/01/28 09:37:30;;;;;;;0.60;0.60;;;;;;;0.59;100.00;102757.22;5094666;28;20077;-58
2024/01/28 09:39:56;;;;;;;0.50;0.50;;;;;;;0.73;100.00;102756.09;5095045;28;20400;-58
2024/01/28 09:42:34;;;;;;;0.50;0.50;;;;;;;0.88;100.00;102751.63;5095109;28;20387;-58
2024/01/28 09:44:59;;;;;;;0.50;0.50;;;;;;;1.04;100.00;102754.94;5095581;28;20066;-58
2024/01/28 09:47:27;;;;;;;0.50;0.50;;;;;;;1.20;100.00;102752.28;5094792;28;20464;-58
2024/01/28 09:49:52;;;;;;;0.57;0.57;;;;;;;1.47;100.00;102763.31;5095248;28;20012;-58
2024/01/28 09:52:17;;;;;;;0.40;0.40;;;;;;;1.70;100.00;102757.94;5094370;28;20089;-58
2024/01/28 09:54:47;;;;;;;0.40;0.40;;;;;;;2.01;100.00;102759.97;5094572;28;20024;-58
2024/01/28 09:57:14;;;;;;;0.30;0.30;;;;;;;2.27;100.00;102749.72;5094720;28;20024;-58
2024/01/28 09:59:40;;;;;;;0.43;0.43;;;;;;;2.49;100.00;102752.63;5095190;28;20606;-58
2024/01/28 10:02:06;;;;;;;0.40;0.40;;;;;;;2.57;100.00;102741.50;5094958;28;20467;-58
2024/01/28 10:04:32;;;;;;;0.40;0.40;;;;;;;2.85;100.00;102735.50;5094729;28;20107;-58
2024/01/28 10:06:59;;;;;;;0.40;0.40;;;;;;;3.08;100.00;102743.56;5095051;28;20425;-59
2024/01/28 10:09:26;;;;;;;0.40;0.40;;;;;;;3.35;100.00;102740.84;5094388;28;20020;-58
2024/01/28 10:11:51;;;;;;;0.43;0.43;;;;;;;3.67;100.00;102730.03;5094951;28;20028;-58
2024/01/28 10:14:17;;;;;;;0.40;0.40;;;;;;;3.76;100.00;102723.22;5094573;28;20107;-59
2024/01/28 10:16:45;;;;;;;0.30;0.30;;;;;;;3.97;100.00;102733.50;5094297;28;20483;-58
2024/01/28 10:19:10;;;;;;;0.40;0.40;;;;;;;4.00;99.58;102733.75;5094615;28;20040;-58
2024/01/28 10:21:36;;;;;;;0.30;0.30;;;;;;;4.12;100.00;102724.63;5094905;28;20016;-58
2024/01/28 10:24:02;;;;;;;0.20;0.20;;;;;;;4.13;100.00;102723.84;5094049;28;20490;-58
2024/01/28 10:26:27;;;;;;;0.40;0.40;;;;;;;4.25;99.10;102727.44;5094438;28;20024;-58
2024/01/28 10:28:52;;;;;;;0.30;0.30;;;;;;;4.53;99.28;102728.91;5094834;28;20017;-58
2024/01/28 10:31:22;;;;;;;0.30;0.30;;;;;;;4.80;99.58;102725.22;5093612;28;20028;-58
2024/01/28 10:33:48;;;;;;;0.30;0.30;;;;;;;4.82;95.74;102733.91;5094607;28;20024;-58
2024/01/28 10:36:16;;;;;;;0.30;0.30;;;;;;;5.06;99.82;102729.03;5093766;28;20042;-58
2024/01/28 10:38:45;;;;;;;0.30;0.30;;;;;;;5.23;96.62;102717.66;5094183;28;20157;-58
2024/01/28 10:41:15;;;;;;;0.32;0.32;;;;;;;5.46;91.34;102722.03;5094104;28;20099;-58
2024/01/28 10:43:51;;;;;;;0.30;0.30;;;;;;;5.45;89.54;102717.72;5093934;28;20050;-59
2024/01/28 10:46:22;;;;;;;0.30;0.30;;;;;;;5.52;90.99;102722.53;5093999;28;20032;-58
2024/01/28 10:48:52;;;;;;;0.30;0.30;;;;;;;5.89;90.01;102716.91;5094309;28;20039;-58
2024/01/28 10:51:19;;;;;;;0.30;0.30;;;;;;;5.90;87.60;102711.91;5093529;28;20074;-58
2024/01/28 10:53:45;;;;;;;0.30;0.30;;;;;;;5.84;85.01;102714.00;5093950;28;20507;-59
2024/01/28 10:56:12;;;;;;;0.30;0.30;;;;;;;5.92;83.38;102701.78;5094066;28;20064;-58
2024/01/28 10:58:38;;;;;;;0.35;0.35;;;;;;;6.00;82.86;102703.31;5093374;28;20078;-58
2024/01/28 11:01:06;;;;;;;0.40;0.40;;;;;;;6.16;84.23;102700.28;5094018;28;20379;-58
2024/01/28 11:03:32;;;;;;;;;;;;;;;6.70;94.52;102701.84;5093828;28;20028;-58
2024/01/28 11:05:57;;;;;;;0.30;0.30;;;;;;;6.64;80.57;102683.44;5093017;28;19976;-58
2024/01/28 11:08:24;;;;;;;0.30;0.30;;;;;;;6.84;76.45;102690.06;5093882;28;20024;-58
2024/01/28 11:10:50;;;;;;;0.33;0.33;;;;;;;6.77;77.75;102687.81;5093976;28;20032;-58
2024/01/28 11:13:15;;;;;;;0.20;0.20;;;;;;;6.92;75.76;102678.69;5093046;28;20355;-58